createdAt,value
2023-03-05T05:57:48.973Z,3.64
2023-03-05T05:57:59.108Z,3.66
2023-03-05T05:58:10.521Z,3.66
2023-03-05T05:58:19.757Z,3.64
2023-03-05T05:58:30.047Z,3.67
2023-03-05T05:58:40.282Z,3.64
2023-03-05T05:58:51.484Z,3.66
2023-03-05T05:59:00.879Z,3.66
2023-03-05T05:59:14.005Z,3.66
2023-03-05T05:59:21.456Z,3.67
2023-03-05T05:59:31.712Z,3.66
2023-03-05T05:59:41.957Z,3.66
2023-03-05T05:59:52.263Z,3.67
2023-03-05T06:00:02.551Z,3.64
2023-03-05T06:00:12.767Z,3.66
2023-03-05T06:00:23.021Z,3.66
2023-03-05T06:00:33.263Z,3.66
2023-03-05T06:00:43.509Z,3.66
2023-03-05T06:00:54.019Z,3.66
2023-03-05T06:01:04.077Z,3.67
2023-03-05T06:01:14.332Z,3.64
2023-03-05T06:01:25.498Z,3.66
2023-03-05T06:01:34.943Z,3.66
2023-03-05T06:01:48.086Z,3.64
2023-03-05T06:01:55.573Z,3.66
2023-03-05T06:02:05.850Z,3.67
2023-03-05T06:02:16.116Z,3.66
2023-03-05T06:02:33.491Z,3.66
2023-03-05T06:02:36.883Z,3.66
2023-03-05T06:02:47.196Z,3.66
2023-03-05T06:02:57.536Z,3.66
2023-03-05T06:03:08.596Z,3.66
2023-03-05T06:03:19.016Z,3.66
2023-03-05T06:03:28.658Z,3.66
2023-03-05T06:03:38.883Z,3.64
2023-03-05T06:03:49.198Z,3.66
2023-03-05T06:04:00.014Z,3.64
2023-03-05T06:04:09.853Z,3.64
2023-03-05T06:04:20.135Z,3.66
2023-03-05T06:04:30.395Z,3.66
2023-03-05T06:04:43.484Z,3.64
2023-03-05T06:04:50.935Z,3.64
2023-03-05T06:05:03.981Z,3.66
2023-03-05T06:05:11.425Z,3.66
2023-03-05T06:05:24.487Z,3.64
2023-03-05T06:05:31.957Z,3.64
2023-03-05T06:05:42.219Z,3.66
2023-03-05T06:05:52.490Z,3.66
2023-03-05T06:06:02.738Z,3.64
2023-03-05T06:06:12.984Z,3.66
2023-03-05T06:06:23.235Z,3.64
2023-03-05T06:06:39.989Z,3.64
2023-03-05T06:06:43.814Z,3.66
2023-03-05T06:06:56.987Z,3.64
2023-03-05T06:07:04.466Z,3.64
2023-03-05T06:07:14.723Z,3.66
2023-03-05T06:07:24.953Z,3.64
2023-03-05T06:07:35.997Z,3.64
2023-03-05T06:07:46.485Z,3.64
2023-03-05T06:07:55.873Z,3.64
2023-03-05T06:08:06.110Z,3.66
2023-03-05T06:08:19.013Z,3.64
2023-03-05T06:08:26.674Z,3.64
2023-03-05T06:08:36.929Z,3.64
2023-03-05T06:08:47.171Z,3.64
2023-03-05T06:08:57.435Z,3.63
2023-03-05T06:09:08.509Z,3.66
2023-03-05T06:09:18.095Z,3.64
2023-03-05T06:09:28.994Z,3.64
2023-03-05T06:09:38.605Z,3.61
2023-03-05T06:09:51.500Z,3.64
2023-03-05T06:09:59.170Z,3.66
2023-03-05T06:10:09.446Z,3.64
2023-03-05T06:10:19.692Z,3.64
2023-03-05T06:10:30.487Z,3.64
2023-03-05T06:10:40.995Z,3.64
2023-03-05T06:10:50.650Z,3.66
2023-03-05T06:11:01.532Z,3.64
2023-03-05T06:11:11.116Z,3.64
2023-03-05T06:11:21.376Z,3.64
2023-03-05T06:11:31.633Z,3.64
2023-03-05T06:11:41.874Z,3.64
2023-03-05T06:11:52.126Z,3.64
2023-03-05T06:12:02.377Z,3.64
2023-03-05T06:12:12.636Z,3.64
2023-03-05T06:12:22.873Z,3.64
2023-03-05T06:12:33.127Z,3.64
2023-03-05T06:12:43.370Z,3.64
2023-03-05T06:12:53.660Z,3.64
2023-03-05T06:13:24.896Z,3.63
2023-03-05T06:13:25.438Z,3.64
2023-03-05T06:13:38.482Z,3.64
2023-03-05T06:13:46.493Z,3.63
2023-03-05T06:13:56.294Z,3.63
2023-03-05T06:14:07.535Z,3.63
2023-03-05T06:14:16.887Z,3.63
2023-03-05T06:14:27.128Z,3.64
2023-03-05T06:14:39.983Z,3.64
2023-03-05T06:14:47.644Z,3.63
2023-03-05T06:14:57.897Z,3.64
2023-03-05T06:15:08.170Z,3.64
2023-03-05T06:15:18.424Z,3.64
2023-03-05T06:15:28.688Z,3.63
2023-03-05T06:15:39.481Z,3.63
2023-03-05T06:15:49.331Z,3.61
2023-03-05T06:15:59.583Z,3.61
2023-03-05T06:16:09.867Z,3.61
2023-03-05T06:16:20.128Z,3.64
2023-03-05T06:16:30.381Z,3.63
2023-03-05T06:16:40.704Z,3.63
2023-03-05T06:16:51.036Z,3.64
2023-03-05T06:17:03.995Z,3.63
2023-03-05T06:17:14.791Z,3.63
2023-03-05T06:17:30.304Z,3.61
2023-03-05T06:17:33.480Z,3.63
2023-03-05T06:17:49.494Z,3.61
2023-03-05T06:17:53.071Z,3.63
2023-03-05T06:18:04.047Z,3.64
2023-03-05T06:18:14.492Z,3.64
2023-03-05T06:18:23.864Z,3.63
2023-03-05T06:18:34.149Z,3.63
2023-03-05T06:18:44.430Z,3.64
2023-03-05T06:18:54.667Z,3.63
2023-03-05T06:19:05.508Z,3.61
2023-03-05T06:19:15.311Z,3.64
2023-03-05T06:19:32.522Z,3.63
2023-03-05T06:19:35.860Z,3.61
2023-03-05T06:19:46.990Z,3.63
2023-03-05T06:19:56.380Z,3.63
2023-03-05T06:20:06.646Z,3.63
2023-03-05T06:20:16.895Z,3.64
2023-03-05T06:20:27.997Z,3.63
2023-03-05T06:20:37.366Z,3.61
2023-03-05T06:20:48.528Z,3.61
2023-03-05T06:20:57.931Z,3.63
2023-03-05T06:21:08.176Z,3.63
2023-03-05T06:21:19.030Z,3.66
2023-03-05T06:21:31.518Z,3.61
2023-03-05T06:21:38.966Z,3.64
2023-03-05T06:21:50.025Z,3.61
2023-03-05T06:21:59.614Z,3.63
2023-03-05T06:22:09.842Z,3.61
2023-03-05T06:22:20.086Z,3.63
2023-03-05T06:22:30.355Z,3.61
2023-03-05T06:22:40.619Z,3.61
2023-03-05T06:22:50.913Z,3.61
2023-03-05T06:23:01.168Z,3.59
2023-03-05T06:23:18.000Z,3.61
2023-03-05T06:23:28.486Z,3.59
2023-03-05T06:23:32.081Z,3.63
2023-03-05T06:23:42.327Z,3.61
2023-03-05T06:23:52.590Z,3.61
2023-03-05T06:24:05.491Z,3.63
2023-03-05T06:24:13.155Z,3.61
2023-03-05T06:24:23.396Z,3.61
2023-03-05T06:24:33.630Z,3.59
2023-03-05T06:24:43.885Z,3.61
2023-03-05T06:24:54.158Z,3.61
2023-03-05T06:25:04.993Z,3.63
2023-03-05T06:25:17.488Z,3.61
2023-03-05T06:25:27.492Z,3.61
2023-03-05T06:25:35.990Z,3.61
2023-03-05T06:25:45.594Z,3.59
2023-03-05T06:25:55.874Z,3.58
2023-03-05T06:26:06.134Z,3.61
2023-03-05T06:26:16.405Z,3.59
2023-03-05T06:26:26.613Z,3.61
2023-03-05T06:26:36.876Z,3.61
2023-03-05T06:26:47.125Z,3.58
2023-03-05T06:27:12.042Z,3.59
2023-03-05T06:27:12.589Z,3.58
2023-03-05T06:27:22.827Z,3.59
2023-03-05T06:27:33.093Z,3.59
2023-03-05T06:27:43.388Z,3.61
2023-03-05T06:27:54.639Z,3.59
2023-03-05T06:28:04.033Z,3.59
2023-03-05T06:28:14.273Z,3.63
2023-03-05T06:28:27.492Z,3.61
2023-03-05T06:28:35.491Z,3.61
2023-03-05T06:28:45.084Z,3.59
2023-03-05T06:28:55.355Z,3.61
2023-03-05T06:29:06.494Z,3.58
2023-03-05T06:29:18.502Z,3.58
2023-03-05T06:29:48.015Z,3.59
2023-03-05T06:29:48.563Z,3.61
2023-03-05T06:29:59.494Z,3.59
2023-03-05T06:30:09.107Z,3.59
2023-03-05T06:30:19.363Z,3.59
2023-03-05T06:30:32.554Z,3.59
2023-03-05T06:30:43.014Z,3.59
2023-03-05T06:30:50.496Z,3.59
2023-03-05T06:31:00.739Z,3.58
2023-03-05T06:31:11.048Z,3.59
2023-03-05T06:31:21.271Z,3.59
2023-03-05T06:31:31.522Z,3.58
2023-03-05T06:31:41.770Z,3.61
2023-03-05T06:31:52.041Z,3.59
2023-03-05T06:32:03.046Z,3.59
2023-03-05T06:32:12.684Z,3.58
2023-03-05T06:32:23.006Z,3.61
2023-03-05T06:32:33.303Z,3.58
2023-03-05T06:32:43.540Z,3.59
2023-03-05T06:32:53.795Z,3.58
2023-03-05T06:33:04.055Z,3.59
2023-03-05T06:33:15.001Z,3.59
2023-03-05T06:33:27.521Z,3.58
2023-03-05T06:33:34.977Z,3.61
2023-03-05T06:33:46.006Z,3.59
2023-03-05T06:33:55.585Z,3.61
2023-03-05T06:34:05.836Z,3.61
2023-03-05T06:34:16.092Z,3.59
2023-03-05T06:34:47.336Z,3.58
2023-03-05T06:34:47.883Z,3.58
2023-03-05T06:34:58.180Z,3.58
2023-03-05T06:35:08.409Z,3.58
2023-03-05T06:35:21.510Z,3.61
2023-03-05T06:35:29.545Z,3.59
2023-03-05T06:35:40.110Z,3.59
2023-03-05T06:35:50.088Z,3.59
2023-03-05T06:36:00.209Z,3.61
2023-03-05T06:36:11.517Z,3.58
2023-03-05T06:36:20.895Z,3.58
2023-03-05T06:36:31.150Z,3.58
2023-03-05T06:36:41.388Z,3.58
2023-03-05T06:36:51.628Z,3.59
2023-03-05T06:37:01.880Z,3.58
2023-03-05T06:37:13.004Z,3.59
2023-03-05T06:37:22.433Z,3.58
2023-03-05T06:37:35.500Z,3.58
2023-03-05T06:37:42.943Z,3.59
2023-03-05T06:37:53.205Z,3.58
2023-03-05T06:38:03.448Z,3.59
2023-03-05T06:38:13.695Z,3.58
2023-03-05T06:38:23.947Z,3.59
2023-03-05T06:38:34.203Z,3.59
2023-03-05T06:38:44.487Z,3.59
2023-03-05T06:38:54.698Z,3.59
2023-03-05T06:39:07.498Z,3.56
2023-03-05T06:39:15.163Z,3.59
2023-03-05T06:39:25.403Z,3.58
2023-03-05T06:39:42.492Z,3.58
2023-03-05T06:39:49.001Z,3.58
2023-03-05T06:39:56.440Z,3.59
2023-03-05T06:40:06.692Z,3.58
2023-03-05T06:40:17.495Z,3.59
2023-03-05T06:40:27.307Z,3.59
2023-03-05T06:40:37.551Z,3.58
2023-03-05T06:40:47.827Z,3.59
2023-03-05T06:40:58.055Z,3.58
2023-03-05T06:41:08.306Z,3.58
2023-03-05T06:41:18.556Z,3.59
2023-03-05T06:41:31.490Z,3.58
2023-03-05T06:41:39.154Z,3.58
2023-03-05T06:41:49.395Z,3.59
2023-03-05T06:41:59.650Z,3.56
2023-03-05T06:42:12.529Z,3.59
2023-03-05T06:42:22.996Z,3.58
2023-03-05T06:42:31.002Z,3.58
2023-03-05T06:42:40.845Z,3.56
2023-03-05T06:42:51.059Z,3.56
2023-03-05T06:43:01.344Z,3.58
2023-03-05T06:43:11.661Z,3.56
2023-03-05T06:43:21.877Z,3.56
2023-03-05T06:43:32.154Z,3.58
2023-03-05T06:43:42.369Z,3.58
2023-03-05T06:43:52.627Z,3.58
2023-03-05T06:44:09.497Z,3.59
2023-03-05T06:44:13.298Z,3.56
2023-03-05T06:44:23.597Z,3.56
2023-03-05T06:44:33.820Z,3.56
2023-03-05T06:44:45.200Z,3.55
2023-03-05T06:44:54.407Z,3.58
2023-03-05T06:45:04.660Z,3.56
2023-03-05T06:45:14.898Z,3.56
2023-03-05T06:45:25.157Z,3.58
2023-03-05T06:45:35.460Z,3.58
2023-03-05T06:45:46.068Z,3.55
2023-03-05T06:45:56.262Z,3.58
2023-03-05T06:46:06.509Z,3.58
2023-03-05T06:46:17.583Z,3.58
2023-03-05T06:46:27.498Z,3.56
2023-03-05T06:46:44.023Z,3.56
2023-03-05T06:46:47.584Z,3.55
2023-03-05T06:46:58.498Z,3.53
2023-03-05T06:47:08.100Z,3.56
2023-03-05T06:47:20.994Z,3.56
2023-03-05T06:47:28.672Z,3.56
2023-03-05T06:47:38.906Z,3.58
2023-03-05T06:47:49.996Z,3.56
2023-03-05T06:47:59.397Z,3.55
2023-03-05T06:48:12.493Z,3.56
2023-03-05T06:48:19.944Z,3.56
2023-03-05T06:48:30.192Z,3.55
2023-03-05T06:48:41.005Z,3.56
2023-03-05T06:48:50.817Z,3.56
2023-03-05T06:49:01.130Z,3.56
2023-03-05T06:49:11.998Z,3.56
2023-03-05T06:49:22.499Z,3.56
2023-03-05T06:49:31.875Z,3.58
2023-03-05T06:49:44.996Z,3.56
2023-03-05T06:49:52.446Z,3.58
2023-03-05T06:50:03.497Z,3.56
2023-03-05T06:50:13.108Z,3.56
2023-03-05T06:50:23.376Z,3.56
2023-03-05T06:50:33.598Z,3.56
2023-03-05T06:50:43.840Z,3.56
2023-03-05T06:50:54.097Z,3.58
2023-03-05T06:51:04.342Z,3.58
2023-03-05T06:51:14.592Z,3.56
2023-03-05T06:51:24.885Z,3.56
2023-03-05T06:51:35.150Z,3.58
2023-03-05T06:51:45.390Z,3.56
2023-03-05T06:51:56.519Z,3.55
2023-03-05T06:52:05.885Z,3.56
2023-03-05T06:52:16.150Z,3.56
2023-03-05T06:52:27.034Z,3.55
2023-03-05T06:52:39.511Z,3.56
2023-03-05T06:52:46.968Z,3.56
2023-03-05T06:52:57.230Z,3.55
2023-03-05T06:53:10.015Z,3.56
2023-03-05T06:53:17.895Z,3.55
2023-03-05T06:53:28.172Z,3.55
2023-03-05T06:53:38.414Z,3.55
2023-03-05T06:53:49.577Z,3.55
2023-03-05T06:53:59.079Z,3.58
2023-03-05T06:54:09.385Z,3.53
2023-03-05T06:54:19.616Z,3.55
2023-03-05T06:54:29.856Z,3.55
2023-03-05T06:54:40.104Z,3.55
2023-03-05T06:54:50.376Z,3.55
2023-03-05T06:55:00.621Z,3.55
2023-03-05T06:55:10.874Z,3.55
2023-03-05T06:55:21.187Z,3.55
2023-03-05T06:55:31.425Z,3.55
2023-03-05T06:55:44.505Z,3.53
2023-03-05T06:55:51.988Z,3.58
2023-03-05T06:56:03.035Z,3.55
2023-03-05T06:56:12.603Z,3.55
2023-03-05T06:56:22.869Z,3.53
2023-03-05T06:56:33.107Z,3.55
2023-03-05T06:56:43.340Z,3.55
2023-03-05T06:56:53.583Z,3.55
2023-03-05T06:57:03.894Z,3.53
2023-03-05T06:57:14.110Z,3.53
2023-03-05T06:57:24.396Z,3.53
2023-03-05T06:57:34.655Z,3.53
2023-03-05T06:57:44.919Z,3.55
2023-03-05T06:57:55.175Z,3.53
2023-03-05T06:58:05.438Z,3.55
2023-03-05T06:58:18.532Z,3.55
2023-03-05T06:58:25.973Z,3.53
2023-03-05T06:58:37.007Z,3.55
2023-03-05T06:58:47.534Z,3.53
2023-03-05T06:58:56.885Z,3.53
2023-03-05T06:59:07.232Z,3.53
2023-03-05T06:59:17.431Z,3.55
2023-03-05T06:59:27.698Z,3.53
2023-03-05T06:59:37.956Z,3.53
2023-03-05T06:59:48.198Z,3.55
2023-03-05T06:59:59.004Z,3.55
2023-03-05T07:00:08.824Z,3.53
2023-03-05T07:00:19.074Z,3.53
2023-03-05T07:00:29.335Z,3.56
2023-03-05T07:00:46.538Z,3.55
2023-03-05T07:00:49.909Z,3.55
2023-03-05T07:01:00.358Z,3.55
2023-03-05T07:01:10.548Z,3.55
2023-03-05T07:01:36.613Z,3.53
2023-03-05T07:01:37.319Z,3.52
2023-03-05T07:01:48.524Z,3.53
2023-03-05T07:01:57.962Z,3.53
2023-03-05T07:02:08.269Z,3.55
2023-03-05T07:02:21.533Z,3.53
2023-03-05T07:02:28.784Z,3.55
2023-03-05T07:02:39.117Z,3.53
2023-03-05T07:02:49.469Z,3.55
2023-03-05T07:02:59.709Z,3.55
2023-03-05T07:03:10.007Z,3.53
2023-03-05T07:03:23.003Z,3.53
2023-03-05T07:03:31.523Z,3.55
2023-03-05T07:03:40.930Z,3.53
2023-03-05T07:03:52.215Z,3.53
2023-03-05T07:04:01.600Z,3.53
2023-03-05T07:04:11.849Z,3.53
2023-03-05T07:04:22.084Z,3.53
2023-03-05T07:04:33.007Z,3.55
2023-03-05T07:04:42.608Z,3.53
2023-03-05T07:04:52.888Z,3.55
2023-03-05T07:05:03.146Z,3.53
2023-03-05T07:05:13.392Z,3.55
2023-03-05T07:05:23.633Z,3.55
2023-03-05T07:05:36.556Z,3.53
2023-03-05T07:05:44.176Z,3.53
2023-03-05T07:05:54.455Z,3.55
2023-03-05T07:06:04.675Z,3.53
2023-03-05T07:06:15.558Z,3.53
2023-03-05T07:06:26.009Z,3.53
2023-03-05T07:06:36.503Z,3.55
2023-03-05T07:06:45.890Z,3.55
2023-03-05T07:06:56.123Z,3.55
2023-03-05T07:07:07.011Z,3.53
2023-03-05T07:07:16.625Z,3.53
2023-03-05T07:07:26.923Z,3.53
2023-03-05T07:07:37.163Z,3.53
2023-03-05T07:07:48.000Z,3.53
2023-03-05T07:07:57.884Z,3.53
2023-03-05T07:08:08.152Z,3.53
2023-03-05T07:08:21.003Z,3.55
2023-03-05T07:08:28.675Z,3.55
2023-03-05T07:08:38.949Z,3.53
2023-03-05T07:08:52.000Z,3.53
2023-03-05T07:08:59.479Z,3.53
2023-03-05T07:09:09.710Z,3.52
2023-03-05T07:09:20.498Z,3.55
2023-03-05T07:09:30.321Z,3.53
2023-03-05T07:09:40.562Z,3.53
2023-03-05T07:09:50.922Z,3.53
2023-03-05T07:10:01.181Z,3.53
2023-03-05T07:10:11.411Z,3.55
2023-03-05T07:10:21.664Z,3.53
2023-03-05T07:10:31.903Z,3.53
2023-03-05T07:10:45.003Z,3.53
2023-03-05T07:10:52.473Z,3.55
2023-03-05T07:11:02.747Z,3.53
2023-03-05T07:11:12.980Z,3.53
2023-03-05T07:11:23.225Z,3.53
2023-03-05T07:11:33.488Z,3.55
2023-03-05T07:11:43.744Z,3.55
2023-03-05T07:11:54.007Z,3.53
2023-03-05T07:12:10.997Z,3.53
2023-03-05T07:12:14.601Z,3.52
2023-03-05T07:12:24.861Z,3.53
2023-03-05T07:12:35.126Z,3.55
2023-03-05T07:12:45.384Z,3.53
2023-03-05T07:12:55.627Z,3.53
2023-03-05T07:13:05.903Z,3.56
2023-03-05T07:13:16.140Z,3.53
2023-03-05T07:13:26.407Z,3.53
2023-03-05T07:13:36.651Z,3.53
2023-03-05T07:13:53.510Z,3.53
2023-03-05T07:14:00.033Z,3.53
2023-03-05T07:14:07.677Z,3.53
2023-03-05T07:14:17.932Z,3.53
2023-03-05T07:14:28.175Z,3.52
2023-03-05T07:14:38.454Z,3.55
2023-03-05T07:14:48.689Z,3.53
2023-03-05T07:14:58.930Z,3.53
2023-03-05T07:15:09.192Z,3.53
2023-03-05T07:15:20.004Z,3.53
2023-03-05T07:15:29.829Z,3.53
2023-03-05T07:15:40.182Z,3.53
2023-03-05T07:15:51.633Z,3.53
2023-03-05T07:16:00.902Z,3.53
2023-03-05T07:16:11.216Z,3.55
2023-03-05T07:16:21.551Z,3.52
2023-03-05T07:16:31.794Z,3.55
2023-03-05T07:16:42.047Z,3.53
2023-03-05T07:16:52.288Z,3.52
2023-03-05T07:17:02.523Z,3.53
2023-03-05T07:17:13.527Z,3.53
2023-03-05T07:17:23.115Z,3.52
2023-03-05T07:17:33.348Z,3.55
2023-03-05T07:17:46.512Z,3.55
2023-03-05T07:17:53.965Z,3.53
2023-03-05T07:18:04.229Z,3.53
2023-03-05T07:18:14.526Z,3.55
2023-03-05T07:18:25.497Z,3.55
2023-03-05T07:18:35.120Z,3.53
2023-03-05T07:18:45.357Z,3.52
2023-03-05T07:18:55.609Z,3.53
2023-03-05T07:19:08.501Z,3.53
2023-03-05T07:19:16.219Z,3.53
2023-03-05T07:19:30.008Z,3.52
2023-03-05T07:19:36.837Z,3.52
2023-03-05T07:19:47.086Z,3.52
2023-03-05T07:19:57.371Z,3.52
2023-03-05T07:20:10.512Z,3.55
2023-03-05T07:20:17.946Z,3.52
2023-03-05T07:20:29.022Z,3.53
2023-03-05T07:20:38.411Z,3.55
2023-03-05T07:20:49.056Z,3.55
2023-03-05T07:20:59.065Z,3.52
2023-03-05T07:21:09.308Z,3.53
2023-03-05T07:21:22.496Z,3.55
2023-03-05T07:21:39.579Z,3.53
2023-03-05T07:21:40.463Z,3.52
2023-03-05T07:21:50.692Z,3.53
2023-03-05T07:22:01.503Z,3.53
2023-03-05T07:22:11.327Z,3.55
2023-03-05T07:22:21.572Z,3.53
2023-03-05T07:22:31.817Z,3.55
2023-03-05T07:22:42.068Z,3.52
2023-03-05T07:22:52.305Z,3.55
2023-03-05T07:23:02.575Z,3.53
2023-03-05T07:23:13.530Z,3.52
2023-03-05T07:23:23.129Z,3.53
2023-03-05T07:23:33.371Z,3.53
2023-03-05T07:23:43.619Z,3.53
2023-03-05T07:23:53.879Z,3.55
2023-03-05T07:24:04.157Z,3.53
2023-03-05T07:24:14.413Z,3.53
2023-03-05T07:24:24.659Z,3.53
2023-03-05T07:24:34.934Z,3.55
2023-03-05T07:24:45.279Z,3.53
2023-03-05T07:24:55.558Z,3.53
2023-03-05T07:25:05.859Z,3.53
2023-03-05T07:25:16.078Z,3.53
2023-03-05T07:25:27.012Z,3.55
2023-03-05T07:25:43.508Z,3.53
2023-03-05T07:25:46.889Z,3.55
2023-03-05T07:25:57.149Z,3.53
2023-03-05T07:26:07.417Z,3.53
2023-03-05T07:26:17.643Z,3.53
2023-03-05T07:26:27.901Z,3.53
2023-03-05T07:26:38.132Z,3.55
2023-03-05T07:26:49.068Z,3.55
2023-03-05T07:26:58.681Z,3.55
2023-03-05T07:27:08.929Z,3.53
2023-03-05T07:27:19.175Z,3.55
2023-03-05T07:27:29.422Z,3.55
2023-03-05T07:27:40.498Z,3.55
2023-03-05T07:27:50.100Z,3.53
2023-03-05T07:28:00.348Z,3.53
2023-03-05T07:28:11.498Z,3.52
2023-03-05T07:28:20.880Z,3.53
2023-03-05T07:28:31.198Z,3.52
2023-03-05T07:28:41.425Z,3.52
2023-03-05T07:28:51.675Z,3.53
2023-03-05T07:29:01.927Z,3.53
2023-03-05T07:29:12.166Z,3.53
2023-03-05T07:29:22.416Z,3.53
2023-03-05T07:29:32.667Z,3.55
2023-03-05T07:29:45.629Z,3.55
2023-03-05T07:29:53.327Z,3.55
2023-03-05T07:30:03.592Z,3.53
2023-03-05T07:30:16.652Z,3.55
2023-03-05T07:30:24.278Z,3.53
2023-03-05T07:30:34.654Z,3.53
2023-03-05T07:30:44.967Z,3.55
2023-03-05T18:53:48.149Z,6.38
2023-03-05T18:53:58.602Z,6.43
2023-03-05T18:54:09.954Z,6.43
2023-03-05T18:54:19.288Z,6.44
2023-03-05T18:54:29.672Z,6.43
2023-03-05T18:54:39.939Z,6.44
2023-03-05T18:54:50.195Z,6.43
2023-03-05T18:55:00.440Z,6.44
2023-03-05T18:55:10.690Z,6.44
2023-03-05T18:55:20.945Z,6.43
2023-03-05T18:55:31.217Z,6.44
2023-03-05T18:55:41.434Z,6.41
2023-03-05T18:55:51.681Z,6.43
2023-03-05T18:56:01.929Z,6.44
2023-03-05T18:56:12.192Z,6.43
2023-03-05T18:56:22.438Z,6.43
2023-03-05T18:56:32.697Z,6.44
2023-03-05T18:56:42.944Z,6.41
2023-03-05T18:56:53.196Z,6.41
2023-03-05T18:57:03.451Z,6.41
2023-03-05T18:57:13.692Z,6.41
2023-03-05T18:57:23.945Z,6.41
2023-03-05T18:57:34.220Z,6.41
2023-03-05T18:57:44.504Z,6.41
2023-03-05T18:57:57.310Z,6.39
2023-03-05T18:58:05.828Z,6.41
2023-03-05T18:58:15.192Z,6.39
2023-03-05T18:58:26.205Z,6.39
2023-03-05T18:58:35.869Z,6.41
2023-03-05T18:58:46.089Z,6.39
2023-03-05T18:58:59.305Z,6.38
2023-03-05T18:59:06.753Z,6.39
2023-03-05T18:59:17.099Z,6.39
2023-03-05T18:59:27.317Z,6.39
2023-03-05T18:59:37.567Z,6.39
2023-03-05T18:59:47.800Z,6.38
2023-03-05T18:59:58.076Z,6.39
2023-03-05T19:00:08.339Z,6.39
2023-03-05T19:00:21.314Z,6.38
2023-03-05T19:00:31.804Z,6.36
2023-03-05T19:00:41.827Z,6.36
2023-03-05T19:00:50.315Z,6.38
2023-03-05T19:01:00.006Z,6.36
2023-03-05T19:01:10.837Z,6.36
2023-03-05T19:01:20.722Z,6.38
2023-03-05T19:01:30.980Z,6.38
2023-03-05T19:01:41.338Z,6.38
2023-03-05T19:01:51.563Z,6.36
2023-03-05T19:02:01.832Z,6.36
2023-03-05T19:02:12.092Z,6.36
2023-03-05T19:02:22.338Z,6.36
2023-03-05T19:02:32.598Z,6.36
2023-03-05T19:02:42.901Z,6.36
2023-03-05T19:02:53.336Z,6.36
2023-03-05T19:03:03.385Z,6.35
2023-03-05T19:03:14.309Z,6.35
2023-03-05T19:03:23.927Z,6.35
2023-03-05T19:03:34.182Z,6.35
2023-03-05T19:03:45.306Z,6.35
2023-03-05T19:03:54.681Z,6.35
2023-03-05T19:04:05.845Z,6.36
2023-03-05T19:04:15.818Z,6.35
2023-03-05T19:04:47.316Z,6.35
2023-03-05T19:04:47.873Z,6.31
2023-03-05T19:04:58.119Z,6.32
2023-03-05T19:05:08.367Z,6.32
2023-03-05T19:05:19.324Z,6.32
2023-03-05T19:05:28.921Z,6.34
2023-03-05T19:05:39.157Z,6.32
2023-03-05T19:05:49.400Z,6.34
2023-03-05T19:05:59.647Z,6.32
2023-03-05T19:06:10.851Z,6.32
2023-03-05T19:06:20.820Z,6.32
2023-03-05T19:06:33.318Z,6.32
2023-03-05T19:06:40.768Z,6.32
2023-03-05T19:06:51.009Z,6.34
2023-03-05T19:07:01.257Z,6.32
2023-03-05T19:07:11.576Z,6.32
2023-03-05T19:07:21.953Z,6.32
2023-03-05T19:07:32.280Z,6.29
2023-03-05T19:07:45.340Z,6.32
2023-03-05T19:07:52.776Z,6.31
2023-03-05T19:08:03.035Z,6.31
2023-03-05T19:08:13.827Z,6.31
2023-03-05T19:08:24.366Z,6.31
2023-03-05T19:08:33.929Z,6.31
2023-03-05T19:08:44.170Z,6.31
2023-03-05T19:08:54.440Z,6.31
2023-03-05T19:09:07.313Z,6.29
2023-03-05T19:09:14.979Z,6.29
2023-03-05T19:09:31.821Z,6.28
2023-03-05T19:09:35.658Z,6.28
2023-03-05T19:09:46.844Z,6.28
2023-03-05T19:09:59.412Z,6.29
2023-03-05T19:10:06.498Z,6.28
2023-03-05T19:18:30.624Z,6.16
2023-03-05T19:18:31.282Z,6.17
2023-03-05T19:18:49.355Z,6.19
2023-03-05T19:18:52.895Z,6.19
2023-03-05T19:19:02.376Z,6.16
2023-03-05T19:19:12.687Z,6.19
2023-03-05T19:19:24.431Z,6.17
2023-03-05T19:19:33.247Z,6.17
2023-03-05T19:19:46.310Z,6.16
2023-03-05T19:19:54.777Z,6.17
2023-03-05T19:20:25.154Z,6.17
2023-03-05T19:20:25.720Z,6.15
2023-03-05T19:20:36.015Z,6.16
2023-03-05T19:20:46.235Z,6.17
2023-03-05T19:21:11.327Z,6.16
2023-03-05T19:21:11.870Z,6.15
2023-03-05T19:21:22.118Z,6.16
2023-03-05T19:21:32.382Z,6.16
2023-03-05T19:21:42.616Z,6.16
2023-03-05T19:21:53.746Z,6.16
2023-03-05T19:22:03.760Z,6.16
2023-03-05T19:22:13.410Z,6.15
2023-03-05T19:22:23.640Z,6.15
2023-03-05T19:22:34.755Z,6.15
2023-03-05T19:22:58.759Z,6.15
2023-03-05T19:22:59.791Z,6.15
2023-03-05T19:23:10.279Z,6.16
2023-03-05T19:23:19.908Z,6.16
2023-03-05T19:23:30.154Z,6.15
2023-03-05T19:23:41.312Z,6.15
2023-03-05T19:23:57.284Z,6.15
2023-03-05T19:24:01.289Z,6.13
2023-03-05T19:24:11.475Z,6.15
2023-03-05T19:24:21.709Z,6.13
2023-03-05T19:29:18.711Z,6.07
2023-03-05T19:30:34.669Z,6.06
2023-03-05T19:30:45.005Z,6.07
2023-03-05T19:30:55.413Z,6.07
2023-03-05T19:31:08.706Z,6.07
2023-03-05T19:31:15.996Z,6.06
2023-03-05T19:31:33.216Z,6.06
2023-03-05T19:31:36.567Z,6.05
2023-03-05T19:31:46.780Z,6.06
2023-03-05T19:31:57.065Z,6.05
2023-03-05T19:32:07.336Z,6.06
2023-03-05T19:32:17.657Z,6.06
2023-03-05T19:32:27.951Z,6.05
2023-03-05T19:32:38.194Z,6.05
2023-03-05T19:32:48.414Z,6.05
2023-03-05T19:32:58.725Z,6.06
2023-03-05T19:33:08.958Z,6.05
2023-03-05T19:33:24.133Z,6.05
2023-03-05T19:33:29.586Z,6.06
2023-03-05T19:33:42.534Z,6.05
2023-03-05T19:33:53.063Z,6.05
2023-03-05T19:34:00.472Z,6.06
2023-03-05T19:34:10.709Z,6.06
2023-03-05T19:34:20.958Z,6.02
2023-03-05T19:34:32.015Z,6.06
2023-03-05T19:34:41.610Z,6.02
2023-03-05T19:34:51.856Z,6.05
2023-03-05T19:35:02.097Z,6.02
2023-03-05T19:35:33.403Z,6.02
2023-03-05T19:35:33.945Z,6.01
2023-03-05T19:35:47.035Z,6.01
2023-03-05T19:35:55.070Z,6.01
2023-03-05T19:36:04.878Z,6.02
2023-03-05T19:36:15.120Z,6.01
2023-03-05T19:36:25.375Z,6.01
2023-03-05T19:36:35.613Z,6.01
2023-03-05T19:36:45.841Z,5.99
2023-03-05T19:36:56.081Z,6.01
2023-03-05T19:37:13.035Z,6.01
2023-03-05T19:37:16.596Z,6.01
2023-03-05T19:37:33.511Z,6.01
2023-03-05T19:37:37.075Z,6.01
2023-03-05T19:37:48.007Z,5.99
2023-03-05T19:37:57.626Z,5.99
2023-03-05T19:38:08.508Z,6.01
2023-03-05T19:38:18.109Z,5.99
2023-03-05T19:38:28.348Z,5.99
2023-03-05T19:38:38.589Z,5.99
2023-03-05T19:38:51.509Z,5.99
2023-03-05T19:38:59.182Z,5.99
2023-03-05T19:39:09.456Z,5.98
2023-03-05T19:39:19.669Z,5.97
2023-03-05T19:39:29.913Z,5.99
2023-03-05T19:39:41.024Z,5.97
2023-03-05T19:39:50.410Z,5.97
2023-03-05T19:40:00.652Z,5.97
2023-03-05T19:40:10.858Z,5.98
2023-03-05T19:40:21.102Z,5.97
2023-03-05T19:40:32.047Z,5.98
2023-03-05T19:40:41.616Z,5.97
2023-03-05T19:40:51.848Z,5.99
2023-03-05T19:41:05.009Z,5.95
2023-03-05T19:41:13.017Z,5.97
2023-03-05T19:41:25.514Z,5.97
2023-03-05T19:41:33.175Z,5.97
2023-03-05T19:41:50.112Z,5.98
2023-03-05T19:41:53.653Z,5.97
2023-03-05T19:42:03.889Z,5.97
2023-03-05T19:42:17.027Z,5.94
2023-03-05T19:42:24.457Z,5.97
2023-03-05T19:42:41.512Z,5.95
2023-03-05T19:42:45.072Z,5.94
2023-03-05T19:42:55.322Z,5.95
2023-03-05T19:43:05.570Z,5.94
2023-03-05T19:43:18.550Z,5.94
2023-03-05T19:43:26.193Z,5.92
2023-03-05T19:43:36.447Z,5.95
2023-03-05T19:43:46.692Z,5.94
2023-03-05T19:43:59.513Z,5.92
2023-03-05T19:44:08.051Z,5.94
2023-03-05T19:44:17.405Z,5.94
2023-03-05T19:44:28.509Z,5.94
2023-03-05T19:44:37.950Z,5.92
2023-03-05T19:44:48.194Z,5.92
2023-03-05T19:45:00.162Z,5.92
2023-03-05T19:45:09.518Z,5.91
2023-03-05T19:45:19.097Z,5.94
2023-03-05T19:45:29.338Z,5.92
2023-03-05T19:45:39.580Z,5.92
2023-03-05T19:45:52.515Z,5.92
2023-03-05T19:46:00.287Z,5.92
2023-03-05T19:46:17.070Z,5.92
2023-03-05T19:46:20.865Z,5.91
2023-03-05T19:46:34.061Z,5.91
2023-03-05T19:46:42.154Z,5.91
2023-03-05T19:46:51.773Z,5.91
2023-03-05T19:47:02.014Z,5.91
2023-03-05T19:47:12.274Z,5.91
2023-03-05T19:47:23.005Z,5.91
2023-03-05T19:47:33.505Z,5.91
2023-03-05T19:47:43.110Z,5.90
2023-03-05T19:47:53.539Z,5.90
2023-03-05T19:48:03.565Z,5.91
2023-03-05T19:48:13.807Z,5.91
2023-03-05T19:48:24.121Z,5.91
2023-03-05T19:48:35.010Z,5.90
2023-03-05T19:48:51.513Z,5.88
2023-03-05T19:48:55.508Z,5.90
2023-03-05T19:49:05.127Z,5.90
2023-03-05T19:49:15.371Z,5.90
2023-03-05T19:49:25.629Z,5.90
2023-03-05T19:49:35.860Z,5.88
2023-03-05T19:49:46.107Z,5.88
2023-03-05T19:49:56.385Z,5.90
2023-03-05T19:50:07.562Z,5.87
2023-03-05T19:50:16.920Z,5.88
2023-03-05T19:50:27.157Z,5.88
2023-03-05T19:50:37.409Z,5.88
2023-03-05T19:50:48.532Z,5.87
2023-03-05T19:50:57.902Z,5.88
2023-03-05T19:51:08.144Z,5.87
2023-03-05T19:51:18.384Z,5.87
2023-03-05T19:51:31.538Z,5.87
2023-03-05T19:51:39.513Z,5.84
2023-03-05T19:51:50.008Z,5.84
2023-03-05T19:51:59.598Z,5.87
2023-03-05T19:52:10.507Z,5.84
2023-03-05T19:52:20.099Z,5.87
2023-03-05T19:52:30.430Z,5.87
2023-03-05T19:52:40.632Z,5.84
2023-03-05T19:52:51.066Z,5.84